sensor_id;sensor_type;location;lat;lon;timestamp;P1;durP1;ratioP1;P2;durP2;ratioP2
71821;SDS011;64096;52.548;13.406;2023-03-24T00:02:17;3.83;;;1.80;;
71821;SDS011;64096;52.548;13.406;2023-03-24T00:04:43;4.38;;;2.10;;
71821;SDS011;64096;52.548;13.406;2023-03-24T00:07:12;3.25;;;1.73;;
71821;SDS011;64096;52.548;13.406;2023-03-24T00:09:39;2.85;;;1.63;;
71821;SDS011;64096;52.548;13.406;2023-03-24T00:12:06;3.85;;;1.90;;
71821;SDS011;64096;52.548;13.406;2023-03-24T00:14:33;4.15;;;1.88;;
71821;SDS011;64096;52.548;13.406;2023-03-24T00:16:59;3.65;;;1.90;;
71821;SDS011;64096;52.548;13.406;2023-03-24T00:19:26;4.00;;;1.90;;
71821;SDS011;64096;52.548;13.406;2023-03-24T00:21:52;3.92;;;2.08;;
71821;SDS011;64096;52.548;13.406;2023-03-24T00:24:19;4.00;;;1.77;;
71821;SDS011;64096;52.548;13.406;2023-03-24T00:26:46;2.97;;;1.75;;
71821;SDS011;64096;52.548;13.406;2023-03-24T00:29:14;3.40;;;1.60;;
71821;SDS011;64096;52.548;13.406;2023-03-24T00:31:40;3.42;;;1.80;;
71821;SDS011;64096;52.548;13.406;2023-03-24T00:34:07;4.10;;;2.00;;
71821;SDS011;64096;52.548;13.406;2023-03-24T00:36:34;3.63;;;1.80;;
71821;SDS011;64096;52.548;13.406;2023-03-24T00:39:01;3.97;;;1.60;;
71821;SDS011;64096;52.548;13.406;2023-03-24T00:41:28;3.67;;;1.70;;
71821;SDS011;64096;52.548;13.406;2023-03-24T00:43:56;3.33;;;1.77;;
71821;SDS011;64096;52.548;13.406;2023-03-24T00:46:22;3.15;;;1.50;;
71821;SDS011;64096;52.548;13.406;2023-03-24T00:48:55;3.40;;;1.75;;
71821;SDS011;64096;52.548;13.406;2023-03-24T00:51:28;2.50;;;1.48;;
71821;SDS011;64096;52.548;13.406;2023-03-24T00:53:54;4.30;;;1.70;;
71821;SDS011;64096;52.548;13.406;2023-03-24T00:56:22;3.80;;;1.80;;
71821;SDS011;64096;52.548;13.406;2023-03-24T00:58:48;3.10;;;1.30;;
71821;SDS011;64096;52.548;13.406;2023-03-24T01:01:14;3.25;;;1.60;;
71821;SDS011;64096;52.548;13.406;2023-03-24T01:03:40;2.45;;;1.33;;
71821;SDS011;64096;52.548;13.406;2023-03-24T01:06:12;2.33;;;1.30;;
71821;SDS011;64096;52.548;13.406;2023-03-24T01:08:38;2.22;;;1.42;;
71821;SDS011;64096;52.548;13.406;2023-03-24T01:11:04;3.10;;;1.63;;
71821;SDS011;64096;52.548;13.406;2023-03-24T01:13:31;2.50;;;1.33;;
71821;SDS011;64096;52.548;13.406;2023-03-24T01:15:58;2.75;;;1.50;;
71821;SDS011;64096;52.548;13.406;2023-03-24T01:18:24;2.53;;;1.40;;
71821;SDS011;64096;52.548;13.406;2023-03-24T01:20:51;2.47;;;1.23;;
71821;SDS011;64096;52.548;13.406;2023-03-24T01:23:22;2.58;;;1.30;;
71821;SDS011;64096;52.548;13.406;2023-03-24T01:25:48;2.80;;;1.40;;
71821;SDS011;64096;52.548;13.406;2023-03-24T01:28:20;2.70;;;1.40;;
71821;SDS011;64096;52.548;13.406;2023-03-24T01:30:48;2.13;;;1.20;;
71821;SDS011;64096;52.548;13.406;2023-03-24T01:33:14;2.38;;;1.35;;
71821;SDS011;64096;52.548;13.406;2023-03-24T01:35:40;2.60;;;1.10;;
71821;SDS011;64096;52.548;13.406;2023-03-24T01:38:07;2.78;;;1.58;;
71821;SDS011;64096;52.548;13.406;2023-03-24T01:40:35;3.28;;;1.63;;
71821;SDS011;64096;52.548;13.406;2023-03-24T01:43:02;3.58;;;1.75;;
71821;SDS011;64096;52.548;13.406;2023-03-24T01:48:22;2.70;;;1.40;;
71821;SDS011;64096;52.548;13.406;2023-03-24T01:50:58;3.22;;;1.48;;
71821;SDS011;64096;52.548;13.406;2023-03-24T01:53:24;2.88;;;1.40;;
71821;SDS011;64096;52.548;13.406;2023-03-24T01:55:51;3.53;;;1.67;;
71821;SDS011;64096;52.548;13.406;2023-03-24T01:58:18;3.20;;;1.58;;
71821;SDS011;64096;52.548;13.406;2023-03-24T02:00:44;2.75;;;1.50;;
71821;SDS011;64096;52.548;13.406;2023-03-24T02:03:12;3.58;;;1.85;;
71821;SDS011;64096;52.548;13.406;2023-03-24T02:05:39;2.05;;;1.17;;
71821;SDS011;64096;52.548;13.406;2023-03-24T02:10:32;2.90;;;1.58;;
71821;SDS011;64096;52.548;13.406;2023-03-24T02:12:58;2.60;;;1.42;;
71821;SDS011;64096;52.548;13.406;2023-03-24T02:15:26;2.67;;;1.70;;
71821;SDS011;64096;52.548;13.406;2023-03-24T02:18:05;2.00;;;1.40;;
71821;SDS011;64096;52.548;13.406;2023-03-24T02:23:10;3.15;;;1.50;;
71821;SDS011;64096;52.548;13.406;2023-03-24T02:41:19;2.40;;;1.40;;
71821;SDS011;64096;52.548;13.406;2023-03-24T02:58:37;2.15;;;1.33;;
71821;SDS011;64096;52.548;13.406;2023-03-24T03:01:07;2.67;;;1.60;;
71821;SDS011;64096;52.548;13.406;2023-03-24T03:03:37;3.75;;;1.60;;
71821;SDS011;64096;52.548;13.406;2023-03-24T03:06:12;2.63;;;1.48;;
71821;SDS011;64096;52.548;13.406;2023-03-24T03:08:40;2.20;;;1.20;;
71821;SDS011;64096;52.548;13.406;2023-03-24T03:11:07;3.28;;;1.73;;
71821;SDS011;64096;52.548;13.406;2023-03-24T03:13:38;2.85;;;1.45;;
71821;SDS011;64096;52.548;13.406;2023-03-24T03:16:09;2.88;;;1.30;;
71821;SDS011;64096;52.548;13.406;2023-03-24T03:18:42;2.50;;;1.30;;
71821;SDS011;64096;52.548;13.406;2023-03-24T03:21:14;2.25;;;1.25;;
71821;SDS011;64096;52.548;13.406;2023-03-24T03:23:42;2.80;;;1.38;;
71821;SDS011;64096;52.548;13.406;2023-03-24T03:26:12;2.90;;;1.33;;
71821;SDS011;64096;52.548;13.406;2023-03-24T03:28:41;2.55;;;1.42;;
71821;SDS011;64096;52.548;13.406;2023-03-24T03:31:14;3.05;;;1.50;;
71821;SDS011;64096;52.548;13.406;2023-03-24T03:33:43;2.00;;;1.40;;
71821;SDS011;64096;52.548;13.406;2023-03-24T03:36:21;3.03;;;1.52;;
71821;SDS011;64096;52.548;13.406;2023-03-24T03:41:33;3.25;;;1.50;;
71821;SDS011;64096;52.548;13.406;2023-03-24T03:44:00;2.45;;;1.50;;
71821;SDS011;64096;52.548;13.406;2023-03-24T03:46:26;3.55;;;1.50;;
71821;SDS011;64096;52.548;13.406;2023-03-24T03:48:52;3.42;;;1.58;;
71821;SDS011;64096;52.548;13.406;2023-03-24T03:51:18;2.90;;;1.50;;
71821;SDS011;64096;52.548;13.406;2023-03-24T03:53:48;2.63;;;1.40;;
71821;SDS011;64096;52.548;13.406;2023-03-24T03:56:16;2.45;;;1.40;;
71821;SDS011;64096;52.548;13.406;2023-03-24T03:58:44;3.08;;;1.50;;
71821;SDS011;64096;52.548;13.406;2023-03-24T04:01:12;2.90;;;1.45;;
71821;SDS011;64096;52.548;13.406;2023-03-24T04:08:57;2.70;;;1.50;;
71821;SDS011;64096;52.548;13.406;2023-03-24T04:11:31;3.33;;;1.80;;
71821;SDS011;64096;52.548;13.406;2023-03-24T04:21:45;4.20;;;1.70;;
71821;SDS011;64096;52.548;13.406;2023-03-24T04:32:04;2.95;;;1.73;;
71821;SDS011;64096;52.548;13.406;2023-03-24T04:34:36;3.90;;;2.20;;
71821;SDS011;64096;52.548;13.406;2023-03-24T04:37:07;3.33;;;2.00;;
71821;SDS011;64096;52.548;13.406;2023-03-24T04:39:36;4.47;;;2.20;;
71821;SDS011;64096;52.548;13.406;2023-03-24T04:42:05;4.25;;;2.33;;
71821;SDS011;64096;52.548;13.406;2023-03-24T04:44:31;3.88;;;1.90;;
71821;SDS011;64096;52.548;13.406;2023-03-24T04:46:59;4.57;;;2.17;;
71821;SDS011;64096;52.548;13.406;2023-03-24T04:49:26;2.92;;;1.85;;
71821;SDS011;64096;52.548;13.406;2023-03-24T04:51:52;4.72;;;2.42;;
71821;SDS011;64096;52.548;13.406;2023-03-24T04:54:19;3.50;;;2.13;;
71821;SDS011;64096;52.548;13.406;2023-03-24T04:56:47;4.10;;;2.13;;
71821;SDS011;64096;52.548;13.406;2023-03-24T04:59:13;4.47;;;2.42;;
71821;SDS011;64096;52.548;13.406;2023-03-24T05:01:40;3.55;;;1.90;;
71821;SDS011;64096;52.548;13.406;2023-03-24T05:04:20;3.53;;;2.03;;
71821;SDS011;64096;52.548;13.406;2023-03-24T05:06:47;3.83;;;2.10;;
71821;SDS011;64096;52.548;13.406;2023-03-24T05:09:19;4.97;;;2.50;;
71821;SDS011;64096;52.548;13.406;2023-03-24T05:11:46;3.65;;;2.33;;
71821;SDS011;64096;52.548;13.406;2023-03-24T05:14:12;6.38;;;2.55;;
71821;SDS011;64096;52.548;13.406;2023-03-24T05:16:38;4.05;;;2.30;;
71821;SDS011;64096;52.548;13.406;2023-03-24T05:19:05;4.40;;;2.30;;
71821;SDS011;64096;52.548;13.406;2023-03-24T05:21:31;4.30;;;2.65;;
71821;SDS011;64096;52.548;13.406;2023-03-24T05:23:57;4.10;;;2.28;;
71821;SDS011;64096;52.548;13.406;2023-03-24T05:26:23;4.10;;;2.28;;
71821;SDS011;64096;52.548;13.406;2023-03-24T05:28:50;4.35;;;2.58;;
71821;SDS011;64096;52.548;13.406;2023-03-24T05:31:16;4.63;;;2.30;;
71821;SDS011;64096;52.548;13.406;2023-03-24T05:33:43;4.05;;;2.78;;
71821;SDS011;64096;52.548;13.406;2023-03-24T05:36:09;4.72;;;2.53;;
71821;SDS011;64096;52.548;13.406;2023-03-24T05:38:35;4.07;;;2.40;;
71821;SDS011;64096;52.548;13.406;2023-03-24T05:41:02;3.92;;;2.60;;
71821;SDS011;64096;52.548;13.406;2023-03-24T05:43:28;4.10;;;2.40;;
71821;SDS011;64096;52.548;13.406;2023-03-24T05:45:54;4.72;;;2.40;;
71821;SDS011;64096;52.548;13.406;2023-03-24T05:48:20;6.70;;;4.53;;
71821;SDS011;64096;52.548;13.406;2023-03-24T05:50:47;5.63;;;3.80;;
71821;SDS011;64096;52.548;13.406;2023-03-24T05:53:13;8.85;;;6.43;;
71821;SDS011;64096;52.548;13.406;2023-03-24T05:55:39;8.90;;;6.30;;
71821;SDS011;64096;52.548;13.406;2023-03-24T05:58:05;5.28;;;3.20;;
71821;SDS011;64096;52.548;13.406;2023-03-24T06:00:31;4.53;;;3.03;;
71821;SDS011;64096;52.548;13.406;2023-03-24T06:02:58;3.78;;;2.30;;
71821;SDS011;64096;52.548;13.406;2023-03-24T06:05:25;4.97;;;2.33;;
71821;SDS011;64096;52.548;13.406;2023-03-24T06:07:51;5.18;;;2.70;;
71821;SDS011;64096;52.548;13.406;2023-03-24T06:10:23;3.88;;;2.45;;
71821;SDS011;64096;52.548;13.406;2023-03-24T06:12:50;3.75;;;2.30;;
71821;SDS011;64096;52.548;13.406;2023-03-24T06:15:17;3.38;;;2.00;;
71821;SDS011;64096;52.548;13.406;2023-03-24T06:17:43;3.70;;;2.08;;
71821;SDS011;64096;52.548;13.406;2023-03-24T06:20:10;3.90;;;2.38;;
71821;SDS011;64096;52.548;13.406;2023-03-24T06:22:40;4.57;;;2.25;;
71821;SDS011;64096;52.548;13.406;2023-03-24T06:25:09;6.47;;;2.63;;
71821;SDS011;64096;52.548;13.406;2023-03-24T06:27:36;4.63;;;2.45;;
71821;SDS011;64096;52.548;13.406;2023-03-24T06:30:03;4.82;;;2.35;;
71821;SDS011;64096;52.548;13.406;2023-03-24T06:32:30;4.60;;;2.72;;
71821;SDS011;64096;52.548;13.406;2023-03-24T06:34:56;4.30;;;2.25;;
71821;SDS011;64096;52.548;13.406;2023-03-24T06:37:22;3.88;;;2.20;;
71821;SDS011;64096;52.548;13.406;2023-03-24T06:39:48;4.38;;;2.45;;
71821;SDS011;64096;52.548;13.406;2023-03-24T06:42:14;3.45;;;2.08;;
71821;SDS011;64096;52.548;13.406;2023-03-24T06:44:41;4.13;;;2.30;;
71821;SDS011;64096;52.548;13.406;2023-03-24T06:47:07;4.00;;;2.15;;
71821;SDS011;64096;52.548;13.406;2023-03-24T06:49:33;3.72;;;2.38;;
71821;SDS011;64096;52.548;13.406;2023-03-24T06:52:01;4.70;;;2.72;;
71821;SDS011;64096;52.548;13.406;2023-03-24T06:54:27;3.50;;;2.22;;
71821;SDS011;64096;52.548;13.406;2023-03-24T06:56:53;3.72;;;2.10;;
71821;SDS011;64096;52.548;13.406;2023-03-24T06:59:20;3.97;;;2.30;;
71821;SDS011;64096;52.548;13.406;2023-03-24T07:01:49;4.07;;;2.38;;
71821;SDS011;64096;52.548;13.406;2023-03-24T07:04:16;4.63;;;2.58;;
71821;SDS011;64096;52.548;13.406;2023-03-24T07:06:42;4.13;;;2.30;;
71821;SDS011;64096;52.548;13.406;2023-03-24T07:09:09;6.50;;;3.80;;
71821;SDS011;64096;52.548;13.406;2023-03-24T07:11:36;6.18;;;3.58;;
71821;SDS011;64096;52.548;13.406;2023-03-24T07:14:02;4.20;;;2.53;;
71821;SDS011;64096;52.548;13.406;2023-03-24T07:16:28;3.95;;;2.13;;
71821;SDS011;64096;52.548;13.406;2023-03-24T07:18:55;3.92;;;2.13;;
71821;SDS011;64096;52.548;13.406;2023-03-24T07:21:21;5.30;;;2.58;;
71821;SDS011;64096;52.548;13.406;2023-03-24T07:23:47;4.00;;;2.53;;
71821;SDS011;64096;52.548;13.406;2023-03-24T07:26:13;3.95;;;2.50;;
71821;SDS011;64096;52.548;13.406;2023-03-24T07:28:39;4.10;;;2.65;;
71821;SDS011;64096;52.548;13.406;2023-03-24T07:31:05;10.73;;;3.17;;
71821;SDS011;64096;52.548;13.406;2023-03-24T07:33:35;4.03;;;2.47;;
71821;SDS011;64096;52.548;13.406;2023-03-24T07:36:02;3.50;;;2.10;;
71821;SDS011;64096;52.548;13.406;2023-03-24T07:38:28;4.03;;;2.45;;
71821;SDS011;64096;52.548;13.406;2023-03-24T07:40:56;5.25;;;3.30;;
71821;SDS011;64096;52.548;13.406;2023-03-24T07:43:23;5.90;;;3.45;;
71821;SDS011;64096;52.548;13.406;2023-03-24T07:45:50;4.63;;;3.17;;
71821;SDS011;64096;52.548;13.406;2023-03-24T07:48:16;4.95;;;3.22;;
71821;SDS011;64096;52.548;13.406;2023-03-24T07:50:42;4.03;;;2.33;;
71821;SDS011;64096;52.548;13.406;2023-03-24T07:53:08;4.53;;;2.55;;
71821;SDS011;64096;52.548;13.406;2023-03-24T07:55:35;6.45;;;4.03;;
71821;SDS011;64096;52.548;13.406;2023-03-24T07:58:01;4.82;;;2.88;;
71821;SDS011;64096;52.548;13.406;2023-03-24T08:00:28;4.05;;;2.47;;
71821;SDS011;64096;52.548;13.406;2023-03-24T08:02:54;4.22;;;2.53;;
71821;SDS011;64096;52.548;13.406;2023-03-24T08:05:20;4.05;;;2.28;;
71821;SDS011;64096;52.548;13.406;2023-03-24T08:07:48;6.13;;;3.95;;
71821;SDS011;64096;52.548;13.406;2023-03-24T08:10:17;3.60;;;2.30;;
71821;SDS011;64096;52.548;13.406;2023-03-24T08:12:44;3.92;;;2.20;;
71821;SDS011;64096;52.548;13.406;2023-03-24T08:15:10;7.00;;;4.45;;
71821;SDS011;64096;52.548;13.406;2023-03-24T08:17:37;5.50;;;2.70;;
71821;SDS011;64096;52.548;13.406;2023-03-24T08:20:04;3.90;;;2.13;;
71821;SDS011;64096;52.548;13.406;2023-03-24T08:22:33;4.50;;;2.50;;
71821;SDS011;64096;52.548;13.406;2023-03-24T08:25:02;4.20;;;2.20;;
71821;SDS011;64096;52.548;13.406;2023-03-24T08:27:29;4.30;;;2.30;;
71821;SDS011;64096;52.548;13.406;2023-03-24T08:29:55;4.47;;;2.63;;
71821;SDS011;64096;52.548;13.406;2023-03-24T08:32:21;4.30;;;2.60;;
71821;SDS011;64096;52.548;13.406;2023-03-24T08:34:47;4.20;;;2.42;;
71821;SDS011;64096;52.548;13.406;2023-03-24T08:37:13;3.72;;;2.38;;
71821;SDS011;64096;52.548;13.406;2023-03-24T08:39:39;6.35;;;2.70;;
71821;SDS011;64096;52.548;13.406;2023-03-24T08:42:05;4.82;;;2.50;;
71821;SDS011;64096;52.548;13.406;2023-03-24T08:44:31;4.10;;;2.47;;
71821;SDS011;64096;52.548;13.406;2023-03-24T08:46:59;4.93;;;2.63;;
71821;SDS011;64096;52.548;13.406;2023-03-24T08:49:25;4.60;;;2.90;;
71821;SDS011;64096;52.548;13.406;2023-03-24T08:51:51;6.55;;;3.33;;
71821;SDS011;64096;52.548;13.406;2023-03-24T08:54:17;6.57;;;4.35;;
71821;SDS011;64096;52.548;13.406;2023-03-24T08:56:45;6.30;;;3.35;;
71821;SDS011;64096;52.548;13.406;2023-03-24T08:59:11;4.85;;;2.70;;
71821;SDS011;64096;52.548;13.406;2023-03-24T09:01:38;5.40;;;2.90;;
71821;SDS011;64096;52.548;13.406;2023-03-24T09:04:05;5.50;;;2.38;;
71821;SDS011;64096;52.548;13.406;2023-03-24T09:06:33;6.13;;;2.50;;
71821;SDS011;64096;52.548;13.406;2023-03-24T09:08:59;4.82;;;2.58;;
71821;SDS011;64096;52.548;13.406;2023-03-24T09:11:25;4.22;;;2.63;;
71821;SDS011;64096;52.548;13.406;2023-03-24T09:13:51;4.82;;;2.53;;
71821;SDS011;64096;52.548;13.406;2023-03-24T09:16:17;4.22;;;2.40;;
71821;SDS011;64096;52.548;13.406;2023-03-24T09:18:43;4.78;;;2.63;;
71821;SDS011;64096;52.548;13.406;2023-03-24T09:21:10;4.38;;;2.28;;
71821;SDS011;64096;52.548;13.406;2023-03-24T09:23:36;4.70;;;2.80;;
71821;SDS011;64096;52.548;13.406;2023-03-24T09:26:03;4.22;;;2.67;;
71821;SDS011;64096;52.548;13.406;2023-03-24T09:28:29;4.80;;;2.78;;
71821;SDS011;64096;52.548;13.406;2023-03-24T09:30:59;5.03;;;2.80;;
71821;SDS011;64096;52.548;13.406;2023-03-24T09:33:26;4.00;;;2.40;;
71821;SDS011;64096;52.548;13.406;2023-03-24T09:35:57;3.70;;;2.20;;
71821;SDS011;64096;52.548;13.406;2023-03-24T09:38:23;4.85;;;2.20;;
71821;SDS011;64096;52.548;13.406;2023-03-24T09:40:53;4.63;;;2.30;;
71821;SDS011;64096;52.548;13.406;2023-03-24T09:45:50;4.10;;;2.40;;
71821;SDS011;64096;52.548;13.406;2023-03-24T09:50:51;4.63;;;2.53;;
71821;SDS011;64096;52.548;13.406;2023-03-24T09:53:30;5.80;;;2.95;;
71821;SDS011;64096;52.548;13.406;2023-03-24T09:56:00;4.07;;;2.10;;
71821;SDS011;64096;52.548;13.406;2023-03-24T09:58:28;3.55;;;2.17;;
71821;SDS011;64096;52.548;13.406;2023-03-24T10:00:55;4.80;;;2.40;;
71821;SDS011;64096;52.548;13.406;2023-03-24T10:03:22;5.20;;;3.25;;
71821;SDS011;64096;52.548;13.406;2023-03-24T10:05:53;4.57;;;2.83;;
71821;SDS011;64096;52.548;13.406;2023-03-24T10:10:56;3.70;;;2.05;;
71821;SDS011;64096;52.548;13.406;2023-03-24T10:13:29;4.18;;;2.40;;
71821;SDS011;64096;52.548;13.406;2023-03-24T10:16:00;3.70;;;2.08;;
71821;SDS011;64096;52.548;13.406;2023-03-24T10:18:32;3.85;;;2.10;;
71821;SDS011;64096;52.548;13.406;2023-03-24T10:21:02;3.65;;;1.92;;
71821;SDS011;64096;52.548;13.406;2023-03-24T10:31:48;2.75;;;1.60;;
71821;SDS011;64096;52.548;13.406;2023-03-24T10:34:15;3.47;;;1.70;;
71821;SDS011;64096;52.548;13.406;2023-03-24T10:36:41;3.35;;;2.00;;
71821;SDS011;64096;52.548;13.406;2023-03-24T10:39:13;3.30;;;1.77;;
71821;SDS011;64096;52.548;13.406;2023-03-24T10:41:40;3.42;;;1.48;;
71821;SDS011;64096;52.548;13.406;2023-03-24T10:44:06;3.28;;;1.90;;
71821;SDS011;64096;52.548;13.406;2023-03-24T10:46:33;3.50;;;1.67;;
71821;SDS011;64096;52.548;13.406;2023-03-24T10:51:39;3.72;;;2.00;;
71821;SDS011;64096;52.548;13.406;2023-03-24T10:56:46;2.90;;;1.83;;
71821;SDS011;64096;52.548;13.406;2023-03-24T11:01:44;3.85;;;1.88;;
71821;SDS011;64096;52.548;13.406;2023-03-24T11:04:13;3.28;;;1.90;;
71821;SDS011;64096;52.548;13.406;2023-03-24T11:06:51;3.38;;;1.85;;
71821;SDS011;64096;52.548;13.406;2023-03-24T11:09:19;3.92;;;1.70;;
71821;SDS011;64096;52.548;13.406;2023-03-24T11:11:46;2.95;;;1.58;;
71821;SDS011;64096;52.548;13.406;2023-03-24T11:14:24;2.95;;;1.67;;
71821;SDS011;64096;52.548;13.406;2023-03-24T11:16:52;3.97;;;2.22;;
71821;SDS011;64096;52.548;13.406;2023-03-24T11:19:22;3.10;;;1.67;;
71821;SDS011;64096;52.548;13.406;2023-03-24T11:21:50;2.97;;;1.85;;
71821;SDS011;64096;52.548;13.406;2023-03-24T11:24:17;3.63;;;2.00;;
71821;SDS011;64096;52.548;13.406;2023-03-24T11:26:55;2.72;;;1.50;;
71821;SDS011;64096;52.548;13.406;2023-03-24T11:29:24;2.53;;;1.55;;
71821;SDS011;64096;52.548;13.406;2023-03-24T11:31:58;3.05;;;1.55;;
71821;SDS011;64096;52.548;13.406;2023-03-24T11:34:30;3.58;;;1.90;;
71821;SDS011;64096;52.548;13.406;2023-03-24T11:39:25;3.10;;;1.77;;
71821;SDS011;64096;52.548;13.406;2023-03-24T11:42:01;2.55;;;1.67;;
71821;SDS011;64096;52.548;13.406;2023-03-24T11:47:05;4.72;;;2.85;;
71821;SDS011;64096;52.548;13.406;2023-03-24T11:49:33;4.38;;;2.20;;
71821;SDS011;64096;52.548;13.406;2023-03-24T11:52:01;3.65;;;2.00;;
71821;SDS011;64096;52.548;13.406;2023-03-24T11:54:32;5.43;;;3.08;;
71821;SDS011;64096;52.548;13.406;2023-03-24T11:57:07;3.50;;;2.00;;
71821;SDS011;64096;52.548;13.406;2023-03-24T11:59:39;3.13;;;1.73;;
71821;SDS011;64096;52.548;13.406;2023-03-24T12:23:10;3.58;;;1.98;;
71821;SDS011;64096;52.548;13.406;2023-03-24T12:25:41;2.83;;;1.63;;
71821;SDS011;64096;52.548;13.406;2023-03-24T12:38:35;2.90;;;1.60;;
71821;SDS011;64096;52.548;13.406;2023-03-24T12:57:06;3.17;;;1.67;;
71821;SDS011;64096;52.548;13.406;2023-03-24T12:59:38;2.38;;;1.27;;
71821;SDS011;64096;52.548;13.406;2023-03-24T13:04:41;2.25;;;1.27;;
71821;SDS011;64096;52.548;13.406;2023-03-24T13:07:10;3.30;;;1.10;;
71821;SDS011;64096;52.548;13.406;2023-03-24T13:12:18;2.72;;;1.20;;
71821;SDS011;64096;52.548;13.406;2023-03-24T13:17:31;3.67;;;1.20;;
71821;SDS011;64096;52.548;13.406;2023-03-24T13:19:59;2.83;;;1.65;;
71821;SDS011;64096;52.548;13.406;2023-03-24T13:22:30;2.78;;;1.40;;
71821;SDS011;64096;52.548;13.406;2023-03-24T13:24:57;2.33;;;1.50;;
71821;SDS011;64096;52.548;13.406;2023-03-24T13:27:35;2.65;;;1.35;;
71821;SDS011;64096;52.548;13.406;2023-03-24T13:32:42;2.08;;;0.98;;
71821;SDS011;64096;52.548;13.406;2023-03-24T13:35:14;1.77;;;0.80;;
71821;SDS011;64096;52.548;13.406;2023-03-24T13:43:11;3.10;;;1.25;;
71821;SDS011;64096;52.548;13.406;2023-03-24T13:45:44;2.38;;;1.08;;
71821;SDS011;64096;52.548;13.406;2023-03-24T13:48:20;2.20;;;1.00;;
71821;SDS011;64096;52.548;13.406;2023-03-24T13:51:02;2.60;;;1.08;;
71821;SDS011;64096;52.548;13.406;2023-03-24T13:53:42;2.90;;;1.20;;
71821;SDS011;64096;52.548;13.406;2023-03-24T13:56:08;2.80;;;0.95;;
71821;SDS011;64096;52.548;13.406;2023-03-24T14:06:54;1.95;;;1.10;;
71821;SDS011;64096;52.548;13.406;2023-03-24T14:09:22;2.25;;;0.90;;
71821;SDS011;64096;52.548;13.406;2023-03-24T14:11:49;2.63;;;0.90;;
71821;SDS011;64096;52.548;13.406;2023-03-24T14:14:35;1.77;;;0.75;;
71821;SDS011;64096;52.548;13.406;2023-03-24T14:19:31;1.88;;;1.02;;
71821;SDS011;64096;52.548;13.406;2023-03-24T14:25:00;2.78;;;1.10;;
71821;SDS011;64096;52.548;13.406;2023-03-24T14:27:39;2.13;;;1.10;;
71821;SDS011;64096;52.548;13.406;2023-03-24T14:32:39;3.28;;;1.30;;
71821;SDS011;64096;52.548;13.406;2023-03-24T14:37:54;2.67;;;1.00;;
71821;SDS011;64096;52.548;13.406;2023-03-24T14:40:34;2.58;;;1.00;;
71821;SDS011;64096;52.548;13.406;2023-03-24T14:43:03;2.25;;;0.82;;
71821;SDS011;64096;52.548;13.406;2023-03-24T14:45:37;2.78;;;1.25;;
71821;SDS011;64096;52.548;13.406;2023-03-24T14:48:03;3.33;;;1.30;;
71821;SDS011;64096;52.548;13.406;2023-03-24T14:50:32;1.95;;;0.98;;
71821;SDS011;64096;52.548;13.406;2023-03-24T14:52:59;3.38;;;1.10;;
71821;SDS011;64096;52.548;13.406;2023-03-24T14:55:26;2.65;;;1.20;;
71821;SDS011;64096;52.548;13.406;2023-03-24T14:57:53;2.63;;;1.00;;
71821;SDS011;64096;52.548;13.406;2023-03-24T15:00:29;2.10;;;1.00;;
71821;SDS011;64096;52.548;13.406;2023-03-24T15:02:58;3.33;;;1.10;;
71821;SDS011;64096;52.548;13.406;2023-03-24T15:10:26;4.93;;;1.23;;
71821;SDS011;64096;52.548;13.406;2023-03-24T15:12:56;3.00;;;1.00;;
71821;SDS011;64096;52.548;13.406;2023-03-24T15:15:22;1.67;;;0.90;;
71821;SDS011;64096;52.548;13.406;2023-03-24T15:17:49;2.35;;;1.15;;
71821;SDS011;64096;52.548;13.406;2023-03-24T15:20:22;2.42;;;1.00;;
71821;SDS011;64096;52.548;13.406;2023-03-24T15:22:49;2.53;;;1.10;;
71821;SDS011;64096;52.548;13.406;2023-03-24T15:25:18;2.17;;;1.00;;
71821;SDS011;64096;52.548;13.406;2023-03-24T15:27:48;2.15;;;0.90;;
71821;SDS011;64096;52.548;13.406;2023-03-24T15:30:15;2.58;;;1.05;;
71821;SDS011;64096;52.548;13.406;2023-03-24T15:32:42;2.15;;;0.80;;
71821;SDS011;64096;52.548;13.406;2023-03-24T15:35:12;4.05;;;1.13;;
71821;SDS011;64096;52.548;13.406;2023-03-24T15:37:40;2.90;;;1.08;;
71821;SDS011;64096;52.548;13.406;2023-03-24T15:42:50;2.00;;;0.80;;
71821;SDS011;64096;52.548;13.406;2023-03-24T15:45:25;2.45;;;0.70;;
71821;SDS011;64096;52.548;13.406;2023-03-24T15:47:52;3.35;;;0.90;;
71821;SDS011;64096;52.548;13.406;2023-03-24T15:50:35;2.40;;;0.90;;
71821;SDS011;64096;52.548;13.406;2023-03-24T15:53:04;3.75;;;1.00;;
71821;SDS011;64096;52.548;13.406;2023-03-24T15:55:34;2.05;;;1.10;;
71821;SDS011;64096;52.548;13.406;2023-03-24T15:58:17;2.80;;;1.10;;
71821;SDS011;64096;52.548;13.406;2023-03-24T16:00:45;2.95;;;0.98;;
71821;SDS011;64096;52.548;13.406;2023-03-24T16:03:11;1.85;;;0.80;;
71821;SDS011;64096;52.548;13.406;2023-03-24T16:05:47;5.38;;;1.20;;
71821;SDS011;64096;52.548;13.406;2023-03-24T16:13:22;2.17;;;1.13;;
71821;SDS011;64096;52.548;13.406;2023-03-24T16:18:34;4.30;;;1.30;;
71821;SDS011;64096;52.548;13.406;2023-03-24T16:21:04;3.95;;;0.95;;
71821;SDS011;64096;52.548;13.406;2023-03-24T16:23:34;3.30;;;0.98;;
71821;SDS011;64096;52.548;13.406;2023-03-24T16:26:00;3.58;;;1.20;;
71821;SDS011;64096;52.548;13.406;2023-03-24T16:28:26;4.90;;;1.08;;
71821;SDS011;64096;52.548;13.406;2023-03-24T16:31:14;2.95;;;1.13;;
71821;SDS011;64096;52.548;13.406;2023-03-24T16:33:41;2.70;;;1.00;;
71821;SDS011;64096;52.548;13.406;2023-03-24T16:36:11;1.95;;;0.95;;
71821;SDS011;64096;52.548;13.406;2023-03-24T16:38:37;3.28;;;1.00;;
71821;SDS011;64096;52.548;13.406;2023-03-24T16:41:03;2.53;;;1.00;;
71821;SDS011;64096;52.548;13.406;2023-03-24T16:43:29;3.55;;;1.20;;
71821;SDS011;64096;52.548;13.406;2023-03-24T16:45:58;2.28;;;1.02;;
71821;SDS011;64096;52.548;13.406;2023-03-24T16:48:24;2.10;;;1.00;;
71821;SDS011;64096;52.548;13.406;2023-03-24T16:50:50;2.00;;;0.90;;
71821;SDS011;64096;52.548;13.406;2023-03-24T16:53:17;3.20;;;1.13;;
71821;SDS011;64096;52.548;13.406;2023-03-24T16:55:43;3.00;;;1.20;;
71821;SDS011;64096;52.548;13.406;2023-03-24T16:58:11;3.75;;;1.30;;
71821;SDS011;64096;52.548;13.406;2023-03-24T17:00:37;3.22;;;1.10;;
71821;SDS011;64096;52.548;13.406;2023-03-24T17:03:04;3.47;;;1.25;;
71821;SDS011;64096;52.548;13.406;2023-03-24T17:05:39;3.05;;;1.35;;
71821;SDS011;64096;52.548;13.406;2023-03-24T17:08:05;3.50;;;1.40;;
71821;SDS011;64096;52.548;13.406;2023-03-24T17:10:31;3.83;;;1.40;;
71821;SDS011;64096;52.548;13.406;2023-03-24T17:12:58;3.03;;;1.27;;
71821;SDS011;64096;52.548;13.406;2023-03-24T17:15:26;2.88;;;1.20;;
71821;SDS011;64096;52.548;13.406;2023-03-24T17:17:53;2.20;;;0.98;;
71821;SDS011;64096;52.548;13.406;2023-03-24T17:20:20;2.30;;;0.90;;
71821;SDS011;64096;52.548;13.406;2023-03-24T17:22:47;2.75;;;1.40;;
71821;SDS011;64096;52.548;13.406;2023-03-24T17:25:15;3.10;;;1.45;;
71821;SDS011;64096;52.548;13.406;2023-03-24T17:27:42;3.97;;;1.55;;
71821;SDS011;64096;52.548;13.406;2023-03-24T17:30:10;2.85;;;1.25;;
71821;SDS011;64096;52.548;13.406;2023-03-24T17:32:39;3.40;;;1.60;;
71821;SDS011;64096;52.548;13.406;2023-03-24T17:35:05;3.60;;;1.50;;
71821;SDS011;64096;52.548;13.406;2023-03-24T17:37:34;4.00;;;1.48;;
71821;SDS011;64096;52.548;13.406;2023-03-24T17:40:01;3.28;;;1.48;;
71821;SDS011;64096;52.548;13.406;2023-03-24T17:42:30;3.92;;;1.73;;
71821;SDS011;64096;52.548;13.406;2023-03-24T17:44:56;4.63;;;2.10;;
71821;SDS011;64096;52.548;13.406;2023-03-24T17:47:23;5.05;;;1.80;;
71821;SDS011;64096;52.548;13.406;2023-03-24T17:49:49;4.10;;;1.80;;